Terminal Aerodrome Forecast
Issued by NWS

Home | Current Version | Previous Version | Text Only | Print | Product List | Glossary On
Versions: 1 2 3 4 5 6 7 8 9 10 11 12 13 14 15 16 17
000
FTUS42 KTAE 302300
TAFVLD
TAF
KVLD 302334Z 0100/0124 06003KT P6SM OVC035
     FM010700 00000KT 4SM BR BKN012
      TEMPO 0110/0112 2SM BR BKN006
     FM011400 10003KT P6SM BKN025
     FM011600 08004KT P6SM SCT040=

USA.gov is the U.S. government's official web portal to all federal, state and local government web resources and services.